createdAt,value
2018-12-27T00:02:29.317Z,80.60
2018-12-27T00:05:01.286Z,80.43
2018-12-27T00:07:32.014Z,80.47
2018-12-27T00:10:04.270Z,80.80
2018-12-27T00:13:36.674Z,81.31
2018-12-27T00:16:09.279Z,81.31
2018-12-27T00:18:41.324Z,81.49
2018-12-27T00:21:13.654Z,81.50
2018-12-27T00:23:46.073Z,81.50
2018-12-27T00:26:18.132Z,81.79
2018-12-27T00:28:50.295Z,81.76
2018-12-27T00:31:22.495Z,81.98
2018-12-27T00:33:54.867Z,81.96
2018-12-27T00:36:27.302Z,81.96
2018-12-27T00:38:59.495Z,81.70
2018-12-27T00:41:31.723Z,81.39
2018-12-27T00:44:04.278Z,81.39
2018-12-27T00:46:35.059Z,81.39
2018-12-27T00:49:07.271Z,81.55
2018-12-27T00:51:39.515Z,81.57
2018-12-27T00:54:11.782Z,81.91
2018-12-27T00:56:44.281Z,81.91
2018-12-27T00:59:15.071Z,82.18
2018-12-27T01:01:47.276Z,82.10
2018-12-27T01:04:18.081Z,82.25
2018-12-27T01:06:50.276Z,82.56
2018-12-27T01:09:22.305Z,82.71
2018-12-27T01:11:54.563Z,82.84
2018-12-27T01:14:26.761Z,82.86
2018-12-27T01:16:59.275Z,82.91
2018-12-27T01:19:30.057Z,82.93
2018-12-27T01:22:02.279Z,82.99
2018-12-27T01:24:33.006Z,83.12
2018-12-27T01:27:05.459Z,83.18
2018-12-27T01:29:37.864Z,82.89
2018-12-27T01:32:10.280Z,82.67
2018-12-27T01:34:41.061Z,82.67
2018-12-27T01:37:13.288Z,82.58
2018-12-27T01:39:44.013Z,82.24
2018-12-27T01:42:16.289Z,81.94
2018-12-27T01:44:48.548Z,81.80
2018-12-27T01:47:20.717Z,81.90
2018-12-27T01:49:52.952Z,81.77
2018-12-27T01:52:25.287Z,81.46
2018-12-27T01:54:57.458Z,81.07
2018-12-27T01:57:29.685Z,80.99
2018-12-27T02:00:02.273Z,80.99
2018-12-27T02:02:34.286Z,80.76
2018-12-27T02:05:05.033Z,80.40
2018-12-27T02:07:37.291Z,80.03
2018-12-27T02:10:08.043Z,79.79
2018-12-27T02:12:40.486Z,79.48
2018-12-27T02:15:12.714Z,79.16
2018-12-27T02:17:44.953Z,79.16
2018-12-27T02:20:17.281Z,79.23
2018-12-27T02:22:47.869Z,79.04
2018-12-27T02:25:20.285Z,78.88
2018-12-27T02:27:51.112Z,78.71
2018-12-27T02:30:22.035Z,78.64
2018-12-27T02:32:54.296Z,78.76
2018-12-27T02:35:26.495Z,78.82
2018-12-27T02:37:58.787Z,78.08
2018-12-27T02:40:31.289Z,78.08
2018-12-27T02:43:02.110Z,77.88
2018-12-27T02:45:34.295Z,77.70
2018-12-27T02:48:05.034Z,77.39
2018-12-27T02:50:37.307Z,77.37
2018-12-27T02:53:09.281Z,77.36
2018-12-27T02:55:39.936Z,77.31
2018-12-27T02:58:12.322Z,76.98
2018-12-27T03:00:44.485Z,77.29
2018-12-27T03:03:16.870Z,77.21
2018-12-27T03:05:49.283Z,77.21
2018-12-27T03:08:20.166Z,77.33
2018-12-27T03:10:52.512Z,77.24
2018-12-27T03:13:24.764Z,77.16
2018-12-27T03:15:57.106Z,77.16
2018-12-27T03:18:27.997Z,77.04
2018-12-27T03:21:00.300Z,76.90
2018-12-27T03:23:32.484Z,76.62
2018-12-27T03:26:04.801Z,76.55
2018-12-27T03:28:37.303Z,76.55
2018-12-27T03:31:09.485Z,76.74
2018-12-27T03:33:41.766Z,76.66
2018-12-27T03:36:14.296Z,76.57
2018-12-27T03:38:46.650Z,76.66
2018-12-27T03:41:18.954Z,76.90
2018-12-27T03:43:51.318Z,76.87
2018-12-27T03:46:22.109Z,76.95
2018-12-27T03:48:53.014Z,76.85
2018-12-27T03:51:25.284Z,76.56
2018-12-27T03:53:57.490Z,76.47
2018-12-27T03:56:29.793Z,76.32
2018-12-27T03:59:02.114Z,76.32
2018-12-27T04:01:34.282Z,76.52
2018-12-27T04:04:05.214Z,76.75
2018-12-27T04:06:36.119Z,76.82
2018-12-27T04:09:07.073Z,76.98
2018-12-27T04:11:39.288Z,77.08
2018-12-27T04:14:10.113Z,77.15
2018-12-27T04:16:40.875Z,77.31
2018-12-27T04:19:12.952Z,77.37
2018-12-27T04:21:44.964Z,77.52
2018-12-27T04:24:19.893Z,77.47
2018-12-27T04:26:51.954Z,77.32
2018-12-27T04:29:24.133Z,77.32
2018-12-27T04:31:57.647Z,77.63
2018-12-27T04:34:29.880Z,77.83
2018-12-27T04:37:02.877Z,77.68
2018-12-27T04:39:35.949Z,77.44
2018-12-27T04:42:08.136Z,76.90
2018-12-27T04:44:38.576Z,76.58
2018-12-27T04:47:10.760Z,76.40
2018-12-27T04:49:42.888Z,76.00
2018-12-27T04:52:14.902Z,75.54
2018-12-27T04:55:35.363Z,75.44
2018-12-27T04:58:07.484Z,75.72
2018-12-27T05:00:39.573Z,75.44
2018-12-27T05:03:11.775Z,75.44
2018-12-27T05:05:43.902Z,75.42
2018-12-27T05:08:16.266Z,75.29
2018-12-27T05:10:46.679Z,75.20
2018-12-27T05:13:18.773Z,75.15
2018-12-27T05:15:50.936Z,74.85
2018-12-27T05:18:22.955Z,74.85
2018-12-27T05:20:54.947Z,74.89
2018-12-27T05:23:27.130Z,74.85
2018-12-27T05:25:57.715Z,74.63
2018-12-27T05:28:29.852Z,74.43
2018-12-27T05:33:05.656Z,74.14
2018-12-27T05:35:37.677Z,74.36
2018-12-27T05:38:09.881Z,74.56
2018-12-27T05:40:41.950Z,74.63
2018-12-27T05:43:13.949Z,74.68
2018-12-27T05:45:46.270Z,74.75
2018-12-27T05:48:16.792Z,74.75
2018-12-27T05:50:48.861Z,74.68
2018-12-27T05:53:20.926Z,74.44
2018-12-27T05:55:52.951Z,74.26
2018-12-27T05:58:24.953Z,74.21
2018-12-27T06:00:56.964Z,74.10
2018-12-27T06:03:29.820Z,73.95
2018-12-27T06:06:01.947Z,74.07
2018-12-27T06:08:34.122Z,74.00
2018-12-27T06:11:06.287Z,73.99
2018-12-27T06:13:38.278Z,74.01
2018-12-27T06:16:08.872Z,73.84
2018-12-27T06:18:40.955Z,73.78
2018-12-27T06:21:12.958Z,73.85
2018-12-27T06:23:45.087Z,73.84
2018-12-27T06:26:17.317Z,73.81
2018-12-27T06:28:50.284Z,73.71
2018-12-27T06:31:20.682Z,73.71
2018-12-27T06:33:52.781Z,73.66
2018-12-27T06:36:25.291Z,73.76
2018-12-27T06:38:57.359Z,73.88
2018-12-27T06:41:29.314Z,74.13
2018-12-27T06:44:01.331Z,74.13
2018-12-27T06:46:33.337Z,74.25
2018-12-27T06:49:05.282Z,74.38
2018-12-27T06:51:35.872Z,74.38
2018-12-27T06:54:07.952Z,74.34
2018-12-27T06:56:39.953Z,74.39
2018-12-27T06:59:12.110Z,74.59
2018-12-27T07:01:43.944Z,74.71
2018-12-27T07:05:26.341Z,74.94
2018-12-27T07:07:56.866Z,74.80
2018-12-27T07:10:28.907Z,74.71
2018-12-27T07:13:01.103Z,74.57
2018-12-27T07:15:33.111Z,74.18
2018-12-27T07:18:05.139Z,73.70
2018-12-27T07:20:37.277Z,73.44
2018-12-27T07:23:07.787Z,73.28
2018-12-27T07:25:39.930Z,73.33
2018-12-27T07:28:12.096Z,73.54
2018-12-27T07:30:44.257Z,73.52
2018-12-27T07:33:14.867Z,73.57
2018-12-27T07:35:47.129Z,73.56
2018-12-27T07:38:19.136Z,73.47
2018-12-27T07:40:49.793Z,73.35
2018-12-27T07:43:21.944Z,73.46
2018-12-27T07:45:54.092Z,73.27
2018-12-27T07:48:26.332Z,73.54
2018-12-27T07:50:58.366Z,73.33
2018-12-27T07:53:30.393Z,73.14
2018-12-27T07:56:02.632Z,73.14
2018-12-27T07:58:34.802Z,72.86
2018-12-27T08:01:06.937Z,72.69
2018-12-27T08:03:38.891Z,72.73
2018-12-27T08:06:10.960Z,72.68
2018-12-27T08:08:43.014Z,72.62
2018-12-27T08:11:15.152Z,72.38
2018-12-27T08:13:47.355Z,71.82
2018-12-27T08:16:19.364Z,71.27
2018-12-27T08:18:51.767Z,71.30
2018-12-27T08:21:23.865Z,71.30
2018-12-27T08:23:57.747Z,71.95
2018-12-27T08:26:29.798Z,71.33
2018-12-27T08:29:01.949Z,71.44
2018-12-27T08:31:33.922Z,71.35
2018-12-27T08:34:06.367Z,71.50
2018-12-27T08:36:38.303Z,71.90
2018-12-27T08:39:12.753Z,71.90
2018-12-27T08:41:44.950Z,71.91
2018-12-27T08:44:17.428Z,71.74
2018-12-27T08:46:49.339Z,71.39
2018-12-27T08:49:21.019Z,71.39
2018-12-27T08:51:53.080Z,70.96
2018-12-27T08:54:25.249Z,70.55
2018-12-27T08:56:55.790Z,71.02
2018-12-27T08:59:27.984Z,71.30
2018-12-27T09:01:59.958Z,71.53
2018-12-27T09:04:31.945Z,71.37
2018-12-27T09:07:04.314Z,71.32
2018-12-27T09:09:39.261Z,71.67
2018-12-27T09:12:10.004Z,71.77
2018-12-27T09:14:42.606Z,71.81
2018-12-27T09:17:15.284Z,71.67
2018-12-27T09:19:45.806Z,71.40
2018-12-27T09:22:17.949Z,71.57
2018-12-27T09:24:50.319Z,71.62
2018-12-27T09:27:22.383Z,71.90
2018-12-27T09:29:54.677Z,72.06
2018-12-27T09:32:26.757Z,72.06
2018-12-27T09:34:58.904Z,71.92
2018-12-27T09:37:31.101Z,71.79
2018-12-27T09:40:03.137Z,71.31
2018-12-27T09:42:33.762Z,71.17
2018-12-27T09:45:08.119Z,70.85
2018-12-27T09:47:38.862Z,70.58
2018-12-27T09:50:10.948Z,70.67
2018-12-27T09:52:42.942Z,70.59
2018-12-27T09:55:16.274Z,70.40
2018-12-27T09:57:47.017Z,70.37
2018-12-27T10:00:19.077Z,70.22
2018-12-27T10:02:51.125Z,69.82
2018-12-27T10:05:23.269Z,69.82
2018-12-27T10:07:57.436Z,69.32
2018-12-27T10:10:27.940Z,68.59
2018-12-27T10:13:00.138Z,68.09
2018-12-27T10:15:30.854Z,68.01
2018-12-27T10:18:02.941Z,68.12
2018-12-27T10:20:34.942Z,68.29
2018-12-27T10:23:07.272Z,68.32
2018-12-27T10:25:37.860Z,67.80
2018-12-27T10:28:10.019Z,67.76
2018-12-27T10:30:42.277Z,67.69
2018-12-27T10:33:13.676Z,67.56
2018-12-27T10:35:47.261Z,67.39
2018-12-27T10:38:17.668Z,65.49
2018-12-27T10:40:49.698Z,65.49
2018-12-27T10:43:21.775Z,65.57
2018-12-27T10:45:53.901Z,65.42
2018-12-27T10:48:26.248Z,65.65
2018-12-27T10:50:56.977Z,65.46
2018-12-27T10:53:29.130Z,64.10
2018-12-27T10:56:01.449Z,64.70
2018-12-27T10:58:36.283Z,64.47
2018-12-27T11:01:08.291Z,64.47
2018-12-27T11:03:40.269Z,64.48
2018-12-27T11:06:11.263Z,62.32
2018-12-27T11:08:41.855Z,58.13
2018-12-27T11:11:14.059Z,57.84
2018-12-27T11:13:46.270Z,57.71
2018-12-27T11:16:17.038Z,57.22
2018-12-27T11:18:49.278Z,56.67
2018-12-27T11:21:21.267Z,55.00
2018-12-27T11:23:53.283Z,52.43
2018-12-27T11:26:23.866Z,50.27
2018-12-27T11:28:55.920Z,46.88
2018-12-27T11:31:28.270Z,46.88
2018-12-27T11:34:00.199Z,45.00
2018-12-27T11:36:30.804Z,42.92
2018-12-27T11:39:03.287Z,42.92
2018-12-27T11:41:35.268Z,42.46
2018-12-27T11:44:07.270Z,41.24
2018-12-27T11:46:39.121Z,39.87
2018-12-27T11:49:14.007Z,38.76
2018-12-27T11:51:46.272Z,37.89
2018-12-27T11:54:24.813Z,37.72
2018-12-27T11:56:57.102Z,36.68
2018-12-27T11:59:27.836Z,37.14
2018-12-27T12:02:00.071Z,37.74
2018-12-27T12:04:30.640Z,39.38
2018-12-27T12:07:02.740Z,41.70
2018-12-27T12:09:37.575Z,44.75
2018-12-27T12:12:09.695Z,47.04
2018-12-27T12:14:41.730Z,49.32
2018-12-27T12:17:14.663Z,50.98
2018-12-27T12:19:46.706Z,52.90
2018-12-27T12:22:18.939Z,54.24
2018-12-27T12:24:50.991Z,54.65
2018-12-27T12:27:22.964Z,53.31
2018-12-27T12:29:55.276Z,52.64
2018-12-27T12:32:25.996Z,50.78
2018-12-27T12:34:58.127Z,47.95
2018-12-27T12:37:29.273Z,45.53
2018-12-27T12:40:01.281Z,43.35
2018-12-27T12:42:33.329Z,40.94
2018-12-27T12:45:06.679Z,35.22
2018-12-27T12:47:38.866Z,35.22
2018-12-27T12:50:11.864Z,32.96
2018-12-27T12:52:44.282Z,32.96
2018-12-27T12:55:16.271Z,32.07
2018-12-27T12:57:48.327Z,31.20
2018-12-27T13:00:20.309Z,30.63
2018-12-27T13:02:52.284Z,30.76
2018-12-27T13:05:24.277Z,30.24
2018-12-27T13:07:56.327Z,29.97
2018-12-27T13:10:28.352Z,29.91
2018-12-27T13:13:00.308Z,30.94
2018-12-27T13:15:32.112Z,32.51
2018-12-27T13:18:03.007Z,33.56
2018-12-27T13:20:33.678Z,35.98
2018-12-27T13:23:05.900Z,38.36
2018-12-27T13:25:38.061Z,42.01
2018-12-27T13:28:08.854Z,42.01
2018-12-27T13:30:40.941Z,44.01
2018-12-27T13:34:34.573Z,47.35
2018-12-27T13:37:06.758Z,48.50
2018-12-27T13:39:38.873Z,49.29
2018-12-27T13:42:12.365Z,50.42
2018-12-27T13:44:44.343Z,51.97
2018-12-27T13:47:16.285Z,51.97
2018-12-27T13:49:46.710Z,53.04
2018-12-27T13:52:18.770Z,53.04
2018-12-27T13:54:50.822Z,53.49
2018-12-27T13:57:45.325Z,53.66
2018-12-27T14:00:18.756Z,55.08
2018-12-27T14:02:50.941Z,55.08
2018-12-27T14:05:23.066Z,55.31
2018-12-27T14:07:55.110Z,54.72
2018-12-27T14:10:27.260Z,54.72
2018-12-27T14:12:58.111Z,54.81
2018-12-27T14:15:28.804Z,54.84
2018-12-27T14:18:00.869Z,54.75
2018-12-27T14:20:32.943Z,54.57
2018-12-27T14:23:04.933Z,55.34
2018-12-27T14:25:37.270Z,55.99
2018-12-27T14:28:08.910Z,56.65
2018-12-27T14:30:41.076Z,57.31
2018-12-27T14:33:11.788Z,58.60
2018-12-27T14:35:43.889Z,59.16
2018-12-27T14:38:15.915Z,59.63
2018-12-27T14:40:47.929Z,60.54
2018-12-27T14:43:19.933Z,60.54
2018-12-27T14:45:51.931Z,60.43
2018-12-27T14:48:25.940Z,60.95
2018-12-27T14:50:58.952Z,61.61
2018-12-27T14:53:31.128Z,61.61
2018-12-27T14:56:03.117Z,62.15
2018-12-27T14:58:33.867Z,62.78
2018-12-27T15:01:06.272Z,63.30
2018-12-27T15:03:37.031Z,63.40
2018-12-27T15:06:09.282Z,63.31
2018-12-27T15:08:40.019Z,63.44
2018-12-27T15:11:12.124Z,64.00
2018-12-27T15:13:44.281Z,63.63
2018-12-27T15:16:17.305Z,63.63
2018-12-27T15:18:49.295Z,63.89
2018-12-27T15:21:21.595Z,64.20
2018-12-27T15:23:53.941Z,64.83
2018-12-27T15:26:26.248Z,65.01
2018-12-27T15:28:57.047Z,65.12
2018-12-27T15:31:29.250Z,65.31
2018-12-27T15:34:00.024Z,65.35
2018-12-27T15:36:32.072Z,65.70
2018-12-27T15:39:05.695Z,65.73
2018-12-27T15:41:37.924Z,65.83
2018-12-27T15:44:09.951Z,65.73
2018-12-27T15:46:41.935Z,65.91
2018-12-27T15:49:15.435Z,66.32
2018-12-27T15:51:47.783Z,66.79
2018-12-27T15:54:19.885Z,66.79
2018-12-27T15:56:52.096Z,66.91
2018-12-27T15:59:25.856Z,66.91
2018-12-27T16:01:58.278Z,66.76
2018-12-27T16:04:28.668Z,66.95
2018-12-27T16:07:01.865Z,67.00
2018-12-27T16:09:33.075Z,67.10
2018-12-27T16:12:05.275Z,67.03
2018-12-27T16:14:39.789Z,66.96
2018-12-27T16:17:09.707Z,67.63
2018-12-27T16:19:41.897Z,67.63
2018-12-27T16:22:14.311Z,67.95
2018-12-27T16:24:46.347Z,68.01
2018-12-27T16:27:16.860Z,67.81
2018-12-27T16:30:00.276Z,67.72
2018-12-27T16:32:31.078Z,67.68
2018-12-27T16:35:03.024Z,67.26
2018-12-27T16:37:35.124Z,67.26
2018-12-27T16:40:06.618Z,67.16
2018-12-27T16:42:38.737Z,67.33
2018-12-27T16:45:10.782Z,67.15
2018-12-27T16:47:43.239Z,67.41
2018-12-27T16:50:13.854Z,67.65
2018-12-27T16:52:45.933Z,67.93
2018-12-27T16:55:17.944Z,67.96
2018-12-27T16:57:49.934Z,68.14
2018-12-27T17:00:22.238Z,67.95
2018-12-27T17:02:52.860Z,68.11
2018-12-27T17:05:24.923Z,68.20
2018-12-27T17:07:57.005Z,68.61
2018-12-27T17:10:29.128Z,68.59
2018-12-27T17:12:59.811Z,68.59
2018-12-27T17:15:32.279Z,68.23
2018-12-27T17:18:02.853Z,68.74
2018-12-27T17:20:35.271Z,69.03
2018-12-27T17:23:05.988Z,68.81
2018-12-27T17:25:38.182Z,68.81
2018-12-27T17:28:10.080Z,69.57
2018-12-27T17:30:41.949Z,69.69
2018-12-27T17:33:14.121Z,69.81
2018-12-27T17:35:44.672Z,69.91
2018-12-27T17:38:16.761Z,70.18
2018-12-27T17:40:48.937Z,70.20
2018-12-27T17:43:20.917Z,70.26
2018-12-27T17:45:53.145Z,70.17
2018-12-27T17:48:23.870Z,70.11
2018-12-27T17:50:55.942Z,70.28
2018-12-27T17:53:27.943Z,70.44
2018-12-27T17:56:00.289Z,70.59
2018-12-27T17:58:30.873Z,70.60
2018-12-27T18:01:03.283Z,70.43
2018-12-27T18:03:33.761Z,70.58
2018-12-27T18:06:05.890Z,70.35
2018-12-27T18:08:37.944Z,70.16
2018-12-27T18:11:09.942Z,69.93
2018-12-27T18:13:42.061Z,69.81
2018-12-27T18:16:14.286Z,69.86
2018-12-27T18:18:44.690Z,70.21
2018-12-27T18:21:16.854Z,70.45
2018-12-27T18:23:48.940Z,70.25
2018-12-27T18:26:20.943Z,70.48
2018-12-27T18:28:52.941Z,70.48
2018-12-27T18:31:24.941Z,70.53
2018-12-27T18:33:56.944Z,70.81
2018-12-27T18:36:29.067Z,70.76
2018-12-27T18:39:01.278Z,70.58
2018-12-27T18:41:31.855Z,70.38
2018-12-27T18:44:03.954Z,70.43
2018-12-27T18:46:35.893Z,70.26
2018-12-27T18:49:07.954Z,70.11
2018-12-27T18:51:40.127Z,70.08
2018-12-27T18:54:10.803Z,70.00
2018-12-27T18:56:43.037Z,70.10
2018-12-27T18:59:15.109Z,69.96
2018-12-27T19:01:47.097Z,70.52
2018-12-27T19:04:19.265Z,70.52
2018-12-27T19:06:49.705Z,70.29
2018-12-27T19:09:21.868Z,70.19
2018-12-27T19:12:47.343Z,70.32
2018-12-27T19:15:24.325Z,70.32
2018-12-27T19:18:13.666Z,70.52
2018-12-27T19:20:50.639Z,70.73
2018-12-27T19:23:23.599Z,70.61
2018-12-27T19:25:55.721Z,70.68
2018-12-27T19:28:27.944Z,70.62
2018-12-27T19:30:59.945Z,70.29
2018-12-27T19:33:31.948Z,70.12
2018-12-27T19:36:04.123Z,69.92
2018-12-27T19:38:36.275Z,69.71
2018-12-27T19:41:06.810Z,69.85
2018-12-27T19:43:38.881Z,70.08
2018-12-27T19:46:10.912Z,70.37
2018-12-27T19:48:42.934Z,70.84
2018-12-27T19:51:14.990Z,71.05
2018-12-27T19:53:46.937Z,70.85
2018-12-27T19:56:19.010Z,70.93
2018-12-27T19:58:51.134Z,71.03
2018-12-27T20:01:21.790Z,71.16
2018-12-27T20:03:53.929Z,71.03
2018-12-27T20:06:25.931Z,70.90
2018-12-27T20:08:58.283Z,70.75
2018-12-27T20:11:28.713Z,70.81
2018-12-27T20:14:00.959Z,71.04
2018-12-27T20:16:32.940Z,71.04
2018-12-27T20:19:05.263Z,70.92
2018-12-27T20:21:35.861Z,70.86
2018-12-27T20:24:08.266Z,70.40
2018-12-27T20:26:39.244Z,69.97
2018-12-27T20:32:41.255Z,69.93
2018-12-27T20:35:12.003Z,69.68
2018-12-27T20:38:31.841Z,69.58
2018-12-27T20:41:04.272Z,69.57
2018-12-27T20:43:36.349Z,70.28
2018-12-27T20:47:00.640Z,71.19
2018-12-27T20:49:32.837Z,71.19
2018-12-27T20:52:04.940Z,71.58
2018-12-27T20:54:37.263Z,71.49
2018-12-27T20:57:07.705Z,71.56
2018-12-27T20:59:39.747Z,71.24
2018-12-27T21:02:11.941Z,70.83
2018-12-27T21:04:43.948Z,70.89
2018-12-27T21:07:15.969Z,70.94
2018-12-27T21:09:48.271Z,70.83
2018-12-27T21:12:18.872Z,70.93
2018-12-27T21:14:50.944Z,70.49
2018-12-27T21:17:22.940Z,70.41
2018-12-27T21:19:54.948Z,70.19
2018-12-27T21:23:32.735Z,69.80
2018-12-27T21:26:04.905Z,69.80
2018-12-27T21:28:37.393Z,69.68
2018-12-27T21:31:09.306Z,69.12
2018-12-27T21:33:39.988Z,68.71
2018-12-27T21:36:11.942Z,68.75
2018-12-27T21:38:44.272Z,68.70
2018-12-27T21:41:14.781Z,68.26
2018-12-27T21:43:47.272Z,68.26
2018-12-27T21:46:17.851Z,68.21
2018-12-27T21:48:49.934Z,68.40
2018-12-27T21:51:21.938Z,68.20
2018-12-27T21:53:54.271Z,68.19
2018-12-27T21:56:25.049Z,68.42
2018-12-27T21:58:57.219Z,68.56
2018-12-27T22:01:27.851Z,68.67
2018-12-27T22:03:59.940Z,68.63
2018-12-27T22:06:32.073Z,68.54
2018-12-27T22:09:04.944Z,68.47
2018-12-27T22:11:37.116Z,68.28
2018-12-27T22:14:09.253Z,68.28
2018-12-27T22:16:39.701Z,68.24
2018-12-27T22:19:11.875Z,68.26
2018-12-27T22:21:43.936Z,68.21
2018-12-27T22:24:16.072Z,68.05
2018-12-27T22:26:48.120Z,67.75
2018-12-27T22:29:18.790Z,67.78
2018-12-27T22:31:50.998Z,67.75
2018-12-27T22:34:23.109Z,67.64
2018-12-27T22:36:55.280Z,67.70
2018-12-27T22:39:26.070Z,67.66
2018-12-27T22:41:56.997Z,67.65
2018-12-27T22:44:28.944Z,67.84
2018-12-27T22:47:01.130Z,67.93
2018-12-27T22:49:34.284Z,67.64
2018-12-27T22:52:05.269Z,67.66
2018-12-27T22:54:36.049Z,67.74
2018-12-27T22:57:08.247Z,67.88
2018-12-27T22:59:40.597Z,68.01
2018-12-27T23:02:13.271Z,68.11
2018-12-27T23:04:44.288Z,68.02
2018-12-27T23:07:15.042Z,68.02
2018-12-27T23:09:47.268Z,68.27
2018-12-27T23:12:18.008Z,68.66
2018-12-27T23:14:51.279Z,69.35
2018-12-27T23:17:23.673Z,69.35
2018-12-27T23:19:56.279Z,69.47
2018-12-27T23:22:27.268Z,69.72
2018-12-27T23:24:58.251Z,69.83
2018-12-27T23:27:30.288Z,69.98
2018-12-27T23:30:01.269Z,70.07
2018-12-27T23:32:32.098Z,69.84
2018-12-27T23:35:04.286Z,69.84
2018-12-27T23:37:34.816Z,70.07
2018-12-27T23:40:11.755Z,69.88
2018-12-27T23:42:44.112Z,69.82
2018-12-27T23:45:16.288Z,69.79
2018-12-27T23:47:48.340Z,69.80
2018-12-27T23:50:20.264Z,70.16
2018-12-27T23:52:51.268Z,70.25
2018-12-27T23:55:22.252Z,70.22
2018-12-27T23:57:52.850Z,70.21
